createdAt,value
2023-04-17T06:32:41.028Z,2836.00
2023-04-17T06:33:40.849Z,2904.00
2023-04-17T06:34:52.463Z,2908.00
2023-04-17T06:35:41.980Z,2932.00
2023-04-17T06:36:40.756Z,2980.00
2023-04-17T06:37:42.167Z,2904.00
2023-04-17T06:38:41.967Z,2920.00
2023-04-17T06:39:42.122Z,2928.00
2023-04-17T06:40:42.012Z,2908.00
2023-04-17T06:41:41.982Z,2900.00
2023-04-17T06:42:43.881Z,2904.00
2023-04-17T06:43:41.947Z,2876.00
2023-04-17T06:44:41.972Z,2828.00
2023-04-17T06:45:41.928Z,2784.00
2023-04-17T06:46:42.285Z,2792.00
2023-04-17T06:47:41.887Z,2812.00
2023-04-17T06:48:41.832Z,2864.00
2023-04-17T06:49:41.850Z,2924.00
2023-04-17T06:50:41.798Z,3020.00
2023-04-17T06:51:41.887Z,3084.00
2023-04-17T06:52:41.816Z,3128.00
2023-04-17T06:53:41.991Z,3164.00
2023-04-17T06:54:41.895Z,3164.00
2023-04-17T06:55:41.826Z,3168.00
2023-04-17T06:56:42.017Z,3176.00
2023-04-17T06:57:41.770Z,3188.00
2023-04-17T06:58:41.758Z,3224.00
2023-04-17T06:59:41.680Z,3320.00
2023-04-17T07:00:41.741Z,3332.00
2023-04-17T07:01:41.744Z,3372.00
2023-04-17T07:02:41.757Z,3428.00
2023-04-17T07:03:43.545Z,3512.00
2023-04-17T07:04:41.752Z,3644.00
2023-04-17T07:05:41.639Z,3684.00
2023-04-17T07:06:41.671Z,3760.00
2023-04-17T07:07:42.888Z,3784.00
2023-04-17T07:08:41.737Z,3776.00
2023-04-17T07:09:41.624Z,3812.00
2023-04-17T07:10:41.602Z,3844.00
2023-04-17T07:11:41.655Z,3920.00
2023-04-17T07:12:41.674Z,4008.00
2023-04-17T07:13:41.599Z,4064.00
2023-04-17T07:14:41.928Z,4056.00
2023-04-17T07:15:41.880Z,4044.00
2023-04-17T07:16:41.667Z,4088.00
2023-04-17T07:17:41.550Z,4188.00
2023-04-17T07:18:41.554Z,4244.00
2023-04-17T07:19:41.552Z,4252.00
2023-04-17T07:20:41.575Z,4032.00
2023-04-17T07:21:41.561Z,3844.00
2023-04-17T07:22:41.553Z,3748.00
2023-04-17T07:23:41.461Z,3692.00
2023-04-17T07:24:41.489Z,3688.00
2023-04-17T07:25:41.425Z,3728.00
2023-04-17T07:26:41.473Z,3840.00
2023-04-17T07:27:41.489Z,3836.00
2023-04-17T07:28:41.471Z,3716.00
2023-04-17T07:29:41.384Z,3584.00
2023-04-17T07:30:41.478Z,3480.00
2023-04-17T07:31:41.439Z,3380.00
2023-04-17T07:32:42.476Z,3296.00
2023-04-17T07:33:42.436Z,3404.00
2023-04-17T07:34:41.361Z,3812.00
2023-04-17T07:35:41.439Z,4104.00
2023-04-17T07:36:41.457Z,4492.00
2023-04-17T07:37:41.324Z,4852.00
2023-04-17T07:38:41.540Z,5096.00
2023-04-17T07:39:43.494Z,5168.00
2023-04-17T07:40:41.294Z,5116.00
2023-04-17T07:41:41.386Z,4968.00
2023-04-17T07:42:41.455Z,5064.00
2023-04-17T07:43:41.309Z,5116.00
2023-04-17T07:44:41.220Z,5420.00
2023-04-17T07:45:42.064Z,5712.00
2023-04-17T07:46:42.343Z,6164.00
2023-04-17T07:47:41.325Z,5888.00
2023-04-17T07:48:41.290Z,6228.00
2023-04-17T07:49:44.435Z,6092.00
2023-04-17T07:50:43.148Z,5720.00
2023-04-17T07:51:41.311Z,5432.00
2023-04-17T07:52:41.194Z,5340.00
2023-04-17T07:53:41.210Z,6352.00
2023-04-17T07:54:41.215Z,6180.00
2023-04-17T07:55:41.130Z,5424.00
2023-04-17T07:56:41.184Z,5448.00
2023-04-17T07:57:44.485Z,5500.00
2023-04-17T07:58:42.143Z,6312.00
2023-04-17T07:59:41.089Z,5464.00
2023-04-17T08:00:41.137Z,4572.00
2023-04-17T08:01:41.199Z,4860.00
2023-04-17T08:02:41.113Z,5000.00
2023-04-17T08:05:06.456Z,5004.00
2023-04-17T08:05:08.428Z,5848.00
2023-04-17T08:06:08.383Z,5888.00
2023-04-17T08:07:08.222Z,5780.00
2023-04-17T08:08:08.155Z,5880.00
2023-04-17T08:09:08.177Z,5840.00
2023-04-17T08:10:08.078Z,4768.00
2023-04-17T08:11:08.185Z,5796.00
2023-04-17T08:12:08.174Z,4972.00
2023-04-17T08:13:08.099Z,4784.00
2023-04-17T08:14:08.160Z,5376.00
2023-04-17T08:15:08.101Z,5400.00
2023-04-17T08:16:08.088Z,5940.00
2023-04-17T08:17:08.088Z,5716.00
2023-04-17T08:18:08.102Z,5780.00
2023-04-17T08:19:08.047Z,4640.00
2023-04-17T08:20:08.083Z,4240.00
2023-04-17T08:21:08.116Z,5180.00
2023-04-17T08:22:08.134Z,6076.00
2023-04-17T08:23:07.985Z,4816.00
2023-04-17T08:24:08.045Z,5564.00
2023-04-17T08:25:08.011Z,5940.00
2023-04-17T08:26:08.029Z,6184.00
2023-04-17T08:27:08.787Z,6296.00
2023-04-17T08:28:07.918Z,6516.00
2023-04-17T08:29:07.978Z,5764.00
2023-04-17T08:30:10.020Z,6700.00
2023-04-17T08:31:08.057Z,6716.00
2023-04-17T08:32:14.696Z,6572.00
2023-04-17T08:33:10.009Z,6496.00
2023-04-17T08:34:14.480Z,6628.00
2023-04-17T08:35:09.941Z,7208.00
2023-04-17T08:36:08.738Z,7152.00
2023-04-17T08:37:08.819Z,6864.00
2023-04-17T08:38:07.841Z,5520.00
2023-04-17T08:39:07.805Z,6156.00
2023-04-17T08:40:07.843Z,7336.00
2023-04-17T08:41:08.353Z,6352.00
2023-04-17T08:42:07.807Z,5592.00
2023-04-17T08:43:07.986Z,5624.00
2023-04-17T08:44:07.776Z,5492.00
2023-04-17T08:45:07.767Z,5564.00
2023-04-17T08:46:07.946Z,6824.00
2023-04-17T08:47:07.784Z,7052.00
2023-04-17T08:48:07.812Z,7092.00
2023-04-17T08:49:40.150Z,7124.00
2023-04-17T08:50:07.826Z,7208.00
2023-04-17T08:51:07.777Z,7268.00
2023-04-17T08:52:07.662Z,7444.00
2023-04-17T08:53:07.802Z,7328.00
2023-04-17T08:54:07.703Z,7476.00
2023-04-17T08:55:07.677Z,7928.00
2023-04-17T08:56:09.103Z,8344.00
2023-04-17T08:57:08.648Z,8852.00
2023-04-17T08:58:07.702Z,8640.00
2023-04-17T08:59:07.765Z,9320.00
2023-04-17T09:00:07.688Z,9264.00
2023-04-17T09:01:07.723Z,8804.00
2023-04-17T09:02:08.150Z,8296.00
2023-04-17T09:03:08.102Z,7828.00
2023-04-17T09:04:07.828Z,7912.00
2023-04-17T09:05:07.694Z,7292.00
2023-04-17T09:06:07.719Z,7980.00
2023-04-17T09:07:07.684Z,8036.00
2023-04-17T09:08:07.566Z,7196.00
2023-04-17T09:09:07.587Z,6072.00
2023-04-17T09:10:07.511Z,6168.00
2023-04-17T09:11:07.612Z,7552.00
2023-04-17T09:12:07.538Z,7816.00
2023-04-17T09:13:07.599Z,7908.00
2023-04-17T09:14:07.489Z,6760.00
2023-04-17T09:15:07.534Z,6848.00
2023-04-17T09:16:07.503Z,7844.00
2023-04-17T09:17:07.469Z,7600.00
2023-04-17T09:18:07.511Z,6440.00
2023-04-17T09:19:07.416Z,6136.00
2023-04-17T09:20:07.793Z,8068.00
2023-04-17T09:21:07.399Z,6388.00
2023-04-17T09:22:07.474Z,7124.00
2023-04-17T09:23:07.443Z,6904.00
2023-04-17T09:24:07.448Z,5816.00
2023-04-17T09:25:07.430Z,5040.00
2023-04-17T09:26:07.378Z,6608.00
2023-04-17T09:27:07.448Z,6808.00
2023-04-17T09:28:07.453Z,5944.00
2023-04-17T09:29:07.372Z,5544.00
2023-04-17T09:30:07.407Z,5268.00
2023-04-17T09:31:07.409Z,4716.00
2023-04-17T09:32:07.324Z,5772.00
2023-04-17T09:33:07.340Z,5672.00
2023-04-17T09:34:07.326Z,5508.00
2023-04-17T09:35:07.298Z,5744.00
2023-04-17T09:36:07.411Z,5560.00
2023-04-17T09:37:07.297Z,5300.00
2023-04-17T09:38:07.319Z,4900.00
2023-04-17T09:39:07.230Z,5328.00
2023-04-17T09:40:07.223Z,4816.00
2023-04-17T09:41:07.333Z,5324.00
2023-04-17T09:42:07.172Z,5496.00
2023-04-17T09:43:09.436Z,5176.00
2023-04-17T09:44:07.255Z,4388.00
2023-04-17T09:45:07.182Z,4208.00
2023-04-17T09:46:07.247Z,5380.00
2023-04-17T09:47:07.230Z,4616.00
2023-04-17T09:48:07.222Z,5276.00
2023-04-17T09:49:07.148Z,4708.00
2023-04-17T09:50:07.117Z,4652.00
2023-04-17T09:51:07.146Z,5168.00
2023-04-17T09:52:07.247Z,4940.00
2023-04-17T09:53:07.152Z,5504.00
2023-04-17T09:54:07.160Z,6064.00
2023-04-17T09:55:07.165Z,5184.00
2023-04-17T09:56:07.148Z,5528.00
2023-04-17T09:57:07.073Z,4040.00
2023-04-17T09:58:07.551Z,4692.00
2023-04-17T09:59:07.059Z,4852.00
2023-04-17T10:00:07.012Z,4384.00
2023-04-17T10:01:07.075Z,5064.00
2023-04-17T10:02:07.127Z,5064.00
2023-04-17T10:03:07.373Z,5408.00
2023-04-17T10:04:07.226Z,6404.00
2023-04-17T10:05:07.072Z,6908.00
2023-04-17T10:06:06.965Z,6672.00
2023-04-17T10:07:06.982Z,6548.00
2023-04-17T10:08:07.065Z,5844.00
2023-04-17T10:09:06.982Z,6128.00
2023-04-17T10:10:06.989Z,5820.00
2023-04-17T10:11:06.968Z,6160.00
2023-04-17T10:12:06.975Z,8104.00
2023-04-17T10:13:06.977Z,8244.00
2023-04-17T10:14:06.932Z,7576.00
2023-04-17T10:15:06.878Z,7628.00
2023-04-17T10:16:07.049Z,8336.00
2023-04-17T10:17:06.851Z,8328.00
2023-04-17T10:18:06.908Z,7980.00
2023-04-17T10:19:06.844Z,8356.00
2023-04-17T10:20:06.940Z,8168.00
2023-04-17T10:21:06.809Z,8292.00
2023-04-17T10:22:06.882Z,8340.00
2023-04-17T10:23:06.851Z,8628.00
2023-04-17T10:24:06.790Z,6092.00
2023-04-17T10:25:06.795Z,7144.00
2023-04-17T10:26:07.011Z,8500.00
2023-04-17T10:27:08.183Z,8484.00
2023-04-17T10:28:07.834Z,8568.00
2023-04-17T10:29:06.725Z,8584.00
2023-04-17T10:30:06.797Z,8584.00
2023-04-17T10:31:06.816Z,9040.00
2023-04-17T10:32:06.851Z,8556.00
2023-04-17T10:33:08.344Z,7108.00
2023-04-17T10:34:07.337Z,7132.00
2023-04-17T10:35:06.780Z,9400.00
2023-04-17T10:36:06.734Z,9268.00
2023-04-17T10:37:07.015Z,6928.00
2023-04-17T10:38:06.775Z,6744.00
2023-04-17T10:39:06.654Z,8936.00
2023-04-17T10:40:06.698Z,9344.00
2023-04-17T10:41:06.677Z,8740.00
2023-04-17T10:42:06.633Z,9320.00
2023-04-17T10:43:06.650Z,9116.00
2023-04-17T10:44:06.615Z,8676.00
2023-04-17T10:45:06.579Z,8992.00
2023-04-17T10:46:06.678Z,8512.00
2023-04-17T10:47:06.673Z,8880.00
2023-04-17T10:48:06.726Z,9132.00
2023-04-17T10:49:06.578Z,9116.00
2023-04-17T10:50:06.598Z,7640.00
2023-04-17T10:51:06.561Z,8972.00
2023-04-17T10:52:06.813Z,6568.00
2023-04-17T10:53:06.561Z,5932.00
2023-04-17T10:54:06.541Z,5580.00
2023-04-17T10:55:06.695Z,5444.00
2023-04-17T10:56:06.467Z,5476.00
2023-04-17T10:57:06.481Z,8216.00
2023-04-17T10:58:06.849Z,8192.00
2023-04-17T10:59:06.689Z,8256.00
2023-04-17T11:00:06.480Z,7984.00
2023-04-17T11:01:06.521Z,8000.00
2023-04-17T11:02:06.471Z,7892.00
2023-04-17T11:03:06.576Z,8028.00
2023-04-17T11:04:06.918Z,8300.00
2023-04-17T11:05:06.469Z,8352.00
2023-04-17T11:06:06.509Z,8196.00
2023-04-17T11:07:06.417Z,8080.00
2023-04-17T11:08:06.986Z,7964.00
2023-04-17T11:09:06.381Z,7892.00
2023-04-17T11:10:06.342Z,7776.00
2023-04-17T11:11:06.517Z,7740.00
2023-04-17T11:12:06.627Z,7712.00
2023-04-17T11:13:06.448Z,7644.00
2023-04-17T11:14:06.405Z,7596.00
2023-04-17T11:15:06.500Z,7664.00
2023-04-17T11:16:06.272Z,7820.00
2023-04-17T11:17:06.330Z,8036.00
2023-04-17T11:18:06.421Z,4920.00
2023-04-17T11:19:06.268Z,8216.00
2023-04-17T11:20:06.251Z,8160.00
2023-04-17T11:21:06.391Z,8164.00
2023-04-17T11:22:06.942Z,8176.00
2023-04-17T11:23:07.011Z,8136.00
2023-04-17T11:24:06.214Z,7636.00
2023-04-17T11:25:06.295Z,8316.00
2023-04-17T11:26:06.575Z,8448.00
2023-04-17T11:27:06.186Z,8696.00
2023-04-17T11:28:06.244Z,7564.00
2023-04-17T11:29:06.255Z,5624.00
2023-04-17T11:30:06.153Z,9084.00
2023-04-17T11:31:06.368Z,9276.00
2023-04-17T11:32:06.111Z,9552.00
2023-04-17T11:33:06.379Z,9760.00
2023-04-17T11:34:06.520Z,9904.00
2023-04-17T11:35:06.107Z,8656.00
2023-04-17T11:36:06.450Z,10068.00
2023-04-17T11:37:06.108Z,10420.00
2023-04-17T11:38:06.162Z,10472.00
2023-04-17T11:39:06.722Z,10240.00
2023-04-17T11:40:06.915Z,10092.00
2023-04-17T11:41:06.065Z,9752.00
2023-04-17T11:42:06.055Z,9428.00
2023-04-17T11:43:06.093Z,9128.00
2023-04-17T11:44:06.038Z,9244.00
2023-04-17T11:45:06.334Z,9368.00
2023-04-17T11:46:05.994Z,9560.00
2023-04-17T11:47:06.721Z,9500.00
2023-04-17T11:48:06.053Z,9252.00
2023-04-17T11:49:06.031Z,9028.00
2023-04-17T11:50:06.080Z,9008.00
2023-04-17T11:51:06.092Z,8988.00
2023-04-17T11:52:06.579Z,9136.00
2023-04-17T11:53:06.080Z,9356.00
2023-04-17T11:54:06.676Z,9644.00
2023-04-17T11:55:05.899Z,9408.00
2023-04-17T11:56:06.028Z,7176.00
2023-04-17T11:57:05.944Z,6216.00
2023-04-17T11:58:06.078Z,9392.00
2023-04-17T11:59:05.986Z,5444.00
2023-04-17T12:00:05.924Z,5292.00
2023-04-17T12:01:06.163Z,5580.00
2023-04-17T12:02:05.841Z,9204.00
2023-04-17T12:03:06.012Z,7000.00
2023-04-17T12:04:06.273Z,7932.00
2023-04-17T12:05:05.990Z,8648.00
2023-04-17T12:06:06.639Z,6400.00
2023-04-17T12:07:05.944Z,9152.00
2023-04-17T12:08:05.901Z,9796.00
2023-04-17T12:09:05.884Z,10076.00
2023-04-17T12:10:05.824Z,10276.00
2023-04-17T12:11:06.513Z,10380.00
2023-04-17T12:12:05.741Z,10508.00
2023-04-17T12:13:07.681Z,10164.00
2023-04-17T12:14:05.957Z,10432.00
2023-04-17T12:15:05.695Z,10736.00
2023-04-17T12:16:05.829Z,10800.00
2023-04-17T12:17:05.778Z,10160.00
2023-04-17T12:18:05.756Z,7480.00
2023-04-17T12:19:06.544Z,10920.00
2023-04-17T12:20:06.547Z,8068.00
2023-04-17T12:21:06.015Z,11696.00
2023-04-17T12:22:05.784Z,12080.00
2023-04-17T12:23:05.872Z,12056.00
2023-04-17T12:24:05.708Z,11624.00
2023-04-17T12:25:05.702Z,8800.00
2023-04-17T12:26:05.716Z,11664.00
2023-04-17T12:27:05.622Z,10180.00
2023-04-17T12:28:05.876Z,8100.00
2023-04-17T12:29:05.817Z,11652.00
2023-04-17T12:30:08.572Z,12072.00
2023-04-17T12:31:05.535Z,12344.00
2023-04-17T12:32:05.723Z,12460.00
2023-04-17T12:33:06.058Z,12396.00
2023-04-17T12:34:05.561Z,12280.00
2023-04-17T12:35:05.909Z,11960.00
2023-04-17T12:36:05.646Z,11744.00
2023-04-17T12:37:05.713Z,11840.00
2023-04-17T12:38:05.519Z,11856.00
2023-04-17T12:39:05.482Z,12036.00
2023-04-17T12:40:05.798Z,12300.00
2023-04-17T12:41:05.551Z,12480.00
2023-04-17T12:42:05.696Z,12532.00
2023-04-17T12:43:05.734Z,12604.00
2023-04-17T12:44:06.575Z,12700.00
2023-04-17T12:45:05.403Z,12896.00
2023-04-17T12:46:05.483Z,13024.00
2023-04-17T12:47:05.581Z,13052.00
2023-04-17T12:48:05.465Z,13248.00
2023-04-17T12:49:05.400Z,13348.00
2023-04-17T12:50:05.359Z,13580.00
2023-04-17T12:51:05.331Z,13604.00
2023-04-17T12:52:05.630Z,13596.00
2023-04-17T12:53:05.398Z,13420.00
2023-04-17T12:54:06.999Z,13168.00
2023-04-17T12:55:05.357Z,12896.00
2023-04-17T12:56:05.524Z,12652.00
2023-04-17T12:57:05.367Z,12796.00
2023-04-17T12:58:05.293Z,12392.00
2023-04-17T12:59:05.335Z,12732.00
2023-04-17T13:00:05.471Z,13100.00
2023-04-17T13:01:05.563Z,13340.00
2023-04-17T13:02:05.280Z,13800.00
2023-04-17T13:03:05.567Z,14908.00
2023-04-17T13:04:05.435Z,14780.00
2023-04-17T13:05:05.414Z,13964.00
2023-04-17T13:06:06.151Z,13504.00
2023-04-17T13:07:05.261Z,13256.00
2023-04-17T13:08:05.406Z,12996.00
2023-04-17T13:09:05.281Z,12760.00
2023-04-17T13:10:05.167Z,12372.00
2023-04-17T13:11:05.716Z,12200.00
2023-04-17T13:12:05.460Z,12224.00
2023-04-17T13:13:05.484Z,12068.00
2023-04-17T13:14:05.126Z,12120.00
2023-04-17T13:15:05.190Z,12092.00
2023-04-17T13:16:05.063Z,8652.00
2023-04-17T13:17:05.180Z,8132.00
2023-04-17T13:18:05.172Z,11808.00
2023-04-17T13:19:05.324Z,11736.00
2023-04-17T13:20:05.121Z,11664.00
2023-04-17T13:21:05.044Z,10584.00
2023-04-17T13:22:05.060Z,10832.00
2023-04-17T13:23:05.061Z,11872.00
2023-04-17T13:24:05.122Z,11612.00
2023-04-17T13:25:05.023Z,12148.00
2023-04-17T13:26:04.980Z,12732.00
2023-04-17T13:27:04.938Z,12716.00
2023-04-17T13:28:04.964Z,11548.00
2023-04-17T13:29:05.097Z,9704.00
2023-04-17T13:30:05.208Z,10744.00
2023-04-17T13:31:04.952Z,11480.00
2023-04-17T13:32:04.992Z,12096.00
2023-04-17T13:33:05.201Z,11088.00
2023-04-17T13:34:05.643Z,10232.00
2023-04-17T13:35:05.859Z,9912.00
2023-04-17T13:36:05.224Z,10288.00
2023-04-17T13:37:04.850Z,10220.00
2023-04-17T13:38:04.961Z,9936.00
2023-04-17T13:39:04.867Z,9780.00
2023-04-17T13:40:05.157Z,9584.00
2023-04-17T13:41:05.049Z,9904.00
2023-04-17T13:42:04.877Z,9592.00
2023-04-17T13:43:04.901Z,10168.00
2023-04-17T13:44:04.869Z,11420.00
2023-04-17T13:45:04.800Z,10980.00
2023-04-17T13:46:05.583Z,9944.00
2023-04-17T13:47:04.798Z,7852.00
2023-04-17T13:48:04.798Z,8260.00
2023-04-17T13:49:04.935Z,10052.00
2023-04-17T13:50:04.719Z,9984.00
2023-04-17T13:51:04.856Z,9568.00
2023-04-17T13:52:04.679Z,9524.00
2023-04-17T13:53:04.950Z,9764.00
2023-04-17T13:54:04.692Z,10744.00
2023-04-17T13:55:04.653Z,10696.00
2023-04-17T13:56:04.918Z,11224.00
2023-04-17T13:57:04.637Z,11368.00
2023-04-17T13:58:04.744Z,11256.00
2023-04-17T13:59:04.846Z,11044.00
2023-04-17T14:00:04.746Z,10880.00
2023-04-17T14:01:04.708Z,16128.00
2023-04-17T14:02:04.881Z,32064.00
2023-04-17T14:03:04.953Z,47840.00
2023-04-17T14:04:05.139Z,42016.00
2023-04-17T14:05:12.033Z,44416.00
2023-04-17T14:06:05.571Z,41984.00
2023-04-17T14:07:04.752Z,36640.00
2023-04-17T14:08:04.602Z,26688.00
2023-04-17T14:09:04.947Z,37440.00
2023-04-17T14:10:04.753Z,32448.00
2023-04-17T14:11:04.491Z,37184.00
2023-04-17T14:12:04.487Z,33088.00
2023-04-17T14:13:04.730Z,11352.00
2023-04-17T14:14:04.600Z,47616.00
2023-04-17T14:15:04.478Z,46720.00
2023-04-17T14:16:04.703Z,46912.00
2023-04-17T14:17:04.590Z,53952.00
2023-04-17T14:18:05.002Z,53728.00
2023-04-17T14:19:13.320Z,43168.00
2023-04-17T14:20:07.373Z,38176.00
2023-04-17T14:21:05.128Z,37472.00
2023-04-17T14:22:04.674Z,11372.00
2023-04-17T14:23:05.736Z,18272.00
2023-04-17T14:24:04.948Z,10088.00
2023-04-17T14:25:04.403Z,8044.00
2023-04-17T14:26:04.447Z,7300.00
2023-04-17T14:27:04.346Z,10424.00
2023-04-17T14:28:04.347Z,6388.00
2023-04-17T14:29:04.931Z,6132.00
2023-04-17T14:30:04.475Z,7428.00
2023-04-17T14:31:05.846Z,56544.00
2023-04-17T14:32:04.337Z,58496.00
2023-04-17T14:33:04.529Z,55520.00
2023-04-17T14:34:04.518Z,58016.00
2023-04-17T14:35:05.549Z,41664.00
2023-04-17T14:36:05.902Z,55232.00
2023-04-17T14:37:05.608Z,19872.00
2023-04-17T14:38:04.540Z,7208.00
2023-04-17T14:39:04.375Z,6456.00
2023-04-17T14:40:04.244Z,6404.00
2023-04-17T14:41:04.349Z,6464.00
2023-04-17T14:42:04.835Z,6872.00
2023-04-17T14:43:04.198Z,8876.00
2023-04-17T14:44:04.208Z,6864.00
2023-04-17T14:45:05.069Z,6336.00
2023-04-17T14:46:04.902Z,5680.00
2023-04-17T14:47:04.317Z,5276.00
2023-04-17T14:48:04.388Z,5104.00
2023-04-17T14:49:04.569Z,5288.00
2023-04-17T14:50:04.104Z,5800.00
2023-04-17T14:51:04.140Z,6376.00
2023-04-17T14:52:04.616Z,7068.00
2023-04-17T14:53:05.038Z,8444.00
2023-04-17T14:54:04.135Z,12644.00
2023-04-17T14:55:04.209Z,34944.00
2023-04-17T14:56:04.314Z,8772.00
2023-04-17T14:57:04.232Z,8872.00
2023-04-17T14:58:09.102Z,8312.00
2023-04-17T14:59:05.106Z,67040.00
2023-04-17T15:00:04.122Z,64000.00
2023-04-17T15:01:04.154Z,73312.00
2023-04-17T15:02:04.233Z,65088.00
2023-04-17T15:03:05.048Z,57536.00
2023-04-17T15:04:05.381Z,46720.00
2023-04-17T15:05:04.374Z,70464.00
2023-04-17T15:06:04.144Z,61152.00
2023-04-17T15:07:04.138Z,64032.00
2023-04-17T15:08:04.312Z,66560.00
2023-04-17T15:09:04.072Z,8792.00
2023-04-17T15:10:03.914Z,7480.00
2023-04-17T15:11:04.169Z,8168.00
2023-04-17T15:12:05.506Z,12060.00
2023-04-17T15:13:04.053Z,31904.00
2023-04-17T15:14:03.903Z,6996.00
2023-04-17T15:15:04.248Z,7568.00
2023-04-17T15:16:03.923Z,8996.00
2023-04-17T15:17:05.408Z,10188.00
2023-04-17T15:18:05.871Z,11496.00
2023-04-17T15:19:03.857Z,12748.00
2023-04-17T15:20:03.832Z,12280.00
2023-04-17T15:21:03.843Z,12052.00
2023-04-17T15:22:04.195Z,14424.00
2023-04-17T15:23:06.883Z,17728.00
2023-04-17T15:24:06.687Z,14976.00
2023-04-17T15:25:03.793Z,19168.00
2023-04-17T15:26:03.790Z,11176.00
2023-04-17T15:27:03.740Z,11056.00
2023-04-17T15:28:03.745Z,11656.00
2023-04-17T15:29:03.783Z,30176.00
2023-04-17T15:30:04.218Z,30048.00
2023-04-17T15:31:03.728Z,33536.00
2023-04-17T15:32:03.717Z,9344.00
2023-04-17T15:33:03.799Z,8248.00
2023-04-17T15:34:05.199Z,10608.00
2023-04-17T15:35:03.660Z,10336.00
2023-04-17T15:36:03.784Z,9800.00
2023-04-17T15:37:03.796Z,9408.00
2023-04-17T15:38:03.825Z,9288.00
2023-04-17T15:39:03.651Z,8608.00
2023-04-17T15:40:03.765Z,7548.00
2023-04-17T15:41:04.245Z,7032.00
2023-04-17T15:42:03.590Z,6832.00
2023-04-17T15:43:03.779Z,6744.00
2023-04-17T15:44:03.981Z,6676.00
2023-04-17T15:45:03.776Z,6516.00
2023-04-17T15:46:03.968Z,6452.00
2023-04-17T15:47:03.897Z,6596.00
2023-04-17T15:48:04.421Z,6736.00
2023-04-17T15:49:09.248Z,6788.00
2023-04-17T15:50:03.850Z,6748.00
2023-04-17T15:51:03.518Z,6652.00
2023-04-17T15:52:03.789Z,6532.00
2023-04-17T15:53:03.510Z,6536.00
2023-04-17T15:54:03.541Z,6636.00
2023-04-17T15:55:03.568Z,6704.00
2023-04-17T15:56:04.897Z,6800.00
2023-04-17T15:57:03.730Z,6984.00
2023-04-17T15:58:05.854Z,7272.00
2023-04-17T15:59:03.544Z,7692.00
2023-04-17T16:00:03.911Z,7948.00
2023-04-17T16:01:03.457Z,7920.00
2023-04-17T16:02:03.914Z,7304.00
2023-04-17T16:03:03.603Z,6732.00
2023-04-17T16:04:04.001Z,6372.00
2023-04-17T16:05:03.405Z,6124.00
2023-04-17T16:06:03.492Z,5916.00
2023-04-17T16:07:03.454Z,5844.00
2023-04-17T16:08:03.317Z,5876.00
2023-04-17T16:09:03.611Z,5848.00
2023-04-17T16:10:03.560Z,5816.00
2023-04-17T16:11:03.461Z,5620.00
2023-04-17T16:12:03.344Z,5480.00
2023-04-17T16:13:03.309Z,5520.00
2023-04-17T16:14:03.314Z,5620.00
2023-04-17T16:15:03.541Z,5712.00
2023-04-17T16:16:03.257Z,5736.00
2023-04-17T16:17:03.300Z,5768.00
2023-04-17T16:18:03.774Z,5808.00
2023-04-17T16:19:03.453Z,5792.00
2023-04-17T16:20:03.197Z,5756.00
2023-04-17T16:21:03.376Z,5716.00
2023-04-17T16:22:03.420Z,5724.00
2023-04-17T16:23:04.848Z,5764.00
2023-04-17T16:24:03.643Z,5840.00
2023-04-17T16:25:03.736Z,6004.00
2023-04-17T16:26:03.175Z,6184.00
2023-04-17T16:27:04.698Z,6364.00
2023-04-17T16:28:03.261Z,6540.00
2023-04-17T16:29:03.129Z,6648.00
2023-04-17T16:30:03.228Z,6668.00
2023-04-17T16:31:03.171Z,6664.00
2023-04-17T16:32:04.567Z,6544.00
2023-04-17T16:33:03.411Z,6396.00
2023-04-17T16:34:03.681Z,6208.00
2023-04-17T16:35:03.117Z,6048.00
2023-04-17T16:36:03.064Z,5900.00
2023-04-17T16:37:04.847Z,5740.00
2023-04-17T16:38:03.230Z,5600.00
2023-04-17T16:39:03.044Z,5448.00
2023-04-17T16:40:03.103Z,5332.00
2023-04-17T16:41:04.605Z,5244.00
2023-04-17T16:42:03.253Z,5176.00
2023-04-17T16:43:03.145Z,5052.00
2023-04-17T16:44:02.947Z,4908.00
2023-04-17T16:45:04.012Z,4712.00
2023-04-17T16:46:10.933Z,4512.00
2023-04-17T16:47:13.516Z,4340.00
2023-04-17T16:48:05.127Z,4280.00
2023-04-17T16:49:02.946Z,4192.00
2023-04-17T16:50:03.045Z,4144.00
2023-04-17T16:51:03.135Z,4064.00
2023-04-17T16:52:02.932Z,3936.00
2023-04-17T16:53:03.150Z,3776.00
2023-04-17T16:54:06.947Z,3568.00
2023-04-17T16:55:03.758Z,3316.00
2023-04-17T16:56:04.977Z,3076.00
2023-04-17T16:57:03.137Z,2876.00
2023-04-17T16:58:04.347Z,2684.00
2023-04-17T16:59:05.338Z,2552.00
2023-04-17T17:00:03.012Z,2448.00
2023-04-17T17:01:03.405Z,2352.00
2023-04-17T17:02:03.324Z,2232.00
2023-04-17T17:03:04.198Z,2156.00
2023-04-17T17:04:07.784Z,2112.00
2023-04-17T17:05:03.170Z,2024.00
2023-04-17T17:06:04.519Z,1876.00
2023-04-17T17:07:03.964Z,1852.00
2023-04-17T17:08:02.819Z,1936.00
2023-04-17T17:09:03.532Z,2212.00
2023-04-17T17:10:05.992Z,1908.00
2023-04-17T17:11:06.228Z,4412.00
2023-04-17T17:12:03.111Z,2604.00
2023-04-17T17:13:03.143Z,4388.00
2023-04-17T17:14:07.503Z,3556.00
2023-04-17T17:15:10.362Z,3176.00
2023-04-17T17:16:07.474Z,2716.00
2023-04-17T17:17:05.069Z,5104.00
2023-04-17T17:18:03.895Z,4180.00
2023-04-17T17:19:03.044Z,2860.00
2023-04-17T17:20:05.574Z,8480.00
2023-04-17T17:21:03.173Z,8352.00
2023-04-17T17:22:02.678Z,4360.00
2023-04-17T17:23:04.892Z,2208.00
2023-04-17T17:24:05.493Z,5252.00
2023-04-17T17:25:02.747Z,8864.00
2023-04-17T17:26:02.815Z,8376.00
2023-04-17T17:27:03.366Z,2404.00
2023-04-17T17:28:02.870Z,1856.00
2023-04-17T17:29:06.845Z,1896.00
2023-04-17T17:30:03.111Z,3516.00
2023-04-17T17:31:04.169Z,4100.00
2023-04-17T17:32:03.305Z,2520.00
2023-04-17T17:33:02.732Z,1832.00
2023-04-17T17:34:16.561Z,1792.00
2023-04-17T17:35:04.851Z,1764.00
2023-04-17T17:36:02.624Z,1756.00
2023-04-17T17:37:02.593Z,1768.00
2023-04-17T17:38:03.183Z,1680.00
2023-04-17T17:39:05.409Z,1648.00
2023-04-17T17:40:02.462Z,1532.00
2023-04-17T17:41:05.448Z,1500.00
2023-04-17T17:42:04.399Z,1460.00
2023-04-17T17:43:02.843Z,1396.00
2023-04-17T17:44:04.239Z,1324.00
2023-04-17T17:45:10.777Z,1260.00
2023-04-17T17:46:02.431Z,1216.00
2023-04-17T17:47:05.841Z,1168.00
2023-04-17T17:48:05.333Z,1132.00
2023-04-17T17:49:02.578Z,1100.00
2023-04-17T17:50:04.193Z,1076.00
2023-04-17T17:51:03.412Z,1056.00
2023-04-17T17:52:02.750Z,1036.00
2023-04-17T17:53:03.184Z,1016.00
2023-04-17T17:54:03.518Z,988.00
2023-04-17T17:55:02.742Z,956.00
2023-04-17T17:56:05.742Z,924.00
2023-04-17T17:57:03.034Z,888.00
2023-04-17T17:58:02.347Z,848.00
2023-04-17T17:59:03.227Z,808.00
2023-04-17T18:00:03.057Z,768.00
2023-04-17T18:01:02.446Z,732.00
2023-04-17T18:02:02.639Z,696.00
2023-04-17T18:03:02.486Z,664.00
2023-04-17T18:04:02.552Z,632.00
2023-04-17T18:05:02.702Z,600.00
2023-04-17T18:06:02.195Z,568.00
2023-04-17T18:07:02.465Z,536.00
2023-04-17T18:08:02.242Z,508.00
2023-04-17T18:09:02.422Z,480.00
2023-04-17T18:10:02.240Z,452.00
2023-04-17T18:11:02.304Z,424.00
2023-04-17T18:12:02.412Z,400.00
2023-04-17T18:13:02.241Z,372.00
2023-04-17T18:14:02.153Z,348.00
2023-04-17T18:15:02.676Z,324.00
2023-04-17T18:16:03.255Z,300.00
2023-04-17T18:17:02.491Z,276.00
2023-04-17T18:20:18.785Z,212.00
2023-04-17T18:21:18.911Z,192.00
2023-04-17T18:22:18.858Z,176.00
2023-04-17T18:23:18.919Z,160.00
2023-04-17T18:24:18.748Z,144.00
2023-04-17T18:25:18.842Z,128.00
2023-04-17T18:26:18.787Z,120.00
2023-04-17T18:27:18.803Z,104.00
2023-04-17T18:28:18.953Z,92.00
2023-04-17T18:29:18.708Z,84.00
2023-04-17T18:30:18.747Z,72.00
2023-04-17T18:31:18.737Z,64.00
2023-04-17T18:32:19.908Z,56.00
2023-04-17T18:33:19.836Z,48.00
2023-04-17T18:34:19.825Z,44.00
2023-04-17T18:35:19.893Z,36.00
2023-04-17T18:36:19.910Z,32.00
2023-04-17T18:37:19.897Z,28.00